Time;durP1;ratioP1;P1;durP2;ratioP2;P2;SDS_P1;SDS_P2;PMS_P1;PMS_P2;Temp;Humidity;BMP_temperature;BMP_pressure;BME280_temperature;BME280_humidity;BME280_pressure;Samples;Min_cycle;Max_cycle;Signal;HPM_P1;HPM_P2
2022/01/22 00:01:56;;;;;;;;;;;12.90;58.30;;;;;;5050884;28;19920;-72
2022/01/22 00:04:24;;;;;;;;;;;12.90;58.30;;;;;;5050524;28;19927;-72
2022/01/22 00:06:52;;;;;;;;;;;12.90;58.30;;;;;;5051667;28;20016;-72
2022/01/22 00:09:24;;;;;;;;;;;12.90;58.40;;;;;;5050258;28;20011;-72
2022/01/22 00:11:53;;;;;;;;;;;12.80;58.30;;;;;;5052113;28;19936;-72
2022/01/22 00:14:25;;;;;;;;;;;12.90;58.40;;;;;;5033518;28;19921;-72
2022/01/22 00:16:51;;;;;;;;;;;12.90;58.40;;;;;;5031757;28;19928;-72
2022/01/22 00:19:18;;;;;;;;;;;12.90;58.40;;;;;;5034380;28;19927;-72
2022/01/22 00:21:46;;;;;;;;;;;12.90;58.40;;;;;;5035022;28;20267;-72
2022/01/22 00:24:13;;;;;;;;;;;12.80;58.30;;;;;;5034223;28;20016;-72
2022/01/22 00:26:40;;;;;;;;;;;12.80;58.30;;;;;;5034062;28;19964;-72
2022/01/22 00:29:06;;;;;;;;;;;12.90;58.40;;;;;;5034138;28;20012;-72
2022/01/22 00:31:33;;;;;;;;;;;12.80;58.30;;;;;;5034995;28;20342;-72
2022/01/22 00:33:59;;;;;;;;;;;12.80;58.40;;;;;;5035153;28;19920;-72
2022/01/22 00:36:26;;;;;;;;;;;12.80;58.40;;;;;;5033870;28;19927;-72
2022/01/22 00:38:54;;;;;;;;;;;12.80;58.40;;;;;;5034140;28;19927;-72
2022/01/22 00:41:21;;;;;;;;;;;12.80;58.40;;;;;;5033761;28;19924;-72
2022/01/22 00:43:48;;;;;;;;;;;12.80;58.40;;;;;;5033786;28;19999;-72
2022/01/22 00:46:14;;;;;;;;;;;12.80;58.40;;;;;;5033217;28;19928;-72
2022/01/22 00:48:41;;;;;;;;;;;12.80;58.40;;;;;;5033969;28;20017;-73
2022/01/22 00:51:08;;;;;;;;;;;12.80;58.40;;;;;;5034937;28;20008;-73
2022/01/22 00:53:34;;;;;;;;;;;12.80;58.40;;;;;;5034743;28;20029;-73
2022/01/22 00:56:02;;;;;;;;;;;12.80;58.40;;;;;;5051723;28;19920;-73
2022/01/22 00:58:29;;;;;;;;;;;12.80;58.40;;;;;;5053638;28;20364;-73
2022/01/22 01:00:55;;;;;;;;;;;12.80;58.40;;;;;;5053585;28;20017;-73
2022/01/22 01:03:22;;;;;;;;;;;12.80;58.40;;;;;;5053456;28;19932;-73
2022/01/22 01:05:48;;;;;;;;;;;12.40;58.20;;;;;;5054255;28;19921;-73
2022/01/22 01:08:15;;;;;;;;;;;12.80;58.40;;;;;;5053407;28;20003;-73
2022/01/22 01:10:41;;;;;;;;;;;12.90;58.40;;;;;;5053443;28;20424;-73
2022/01/22 01:13:09;;;;;;;;;;;12.80;58.40;;;;;;5044912;28;19925;-73
2022/01/22 01:15:41;;;;;;;;;;;12.90;58.40;;;;;;5034158;28;20356;-73
2022/01/22 01:34:40;;;;;;;;;;;13.00;58.40;;;;;;5032992;28;19917;-73
2022/01/22 01:37:06;;;;;;;;;;;13.00;58.30;;;;;;5032765;28;20263;-73
2022/01/22 01:39:35;;;;;;;;;;;12.90;58.20;;;;;;5032909;28;19975;-73
2022/01/22 01:42:05;;;;;;;;;;;12.90;58.20;;;;;;5033807;28;20020;-73
2022/01/22 01:44:33;;;;;;;;;;;13.00;58.80;;;;;;5032472;28;20031;-73
2022/01/22 01:47:01;;;;;;;;;;;13.00;58.20;;;;;;5032597;28;20007;-73
2022/01/22 01:49:27;;;;;;;;;;;13.00;58.20;;;;;;5032588;28;19921;-73
2022/01/22 01:51:56;;;;;;;;;;;13.00;58.20;;;;;;5047026;28;19968;-73
2022/01/22 01:54:36;;;;;;;;;;;13.10;58.20;;;;;;5052409;28;19921;-73
2022/01/22 01:59:49;;;;;;;;;;;13.10;58.20;;;;;;5052606;28;19916;-73
2022/01/22 02:02:16;;;;;;;;;;;13.10;58.10;;;;;;5053258;28;20427;-73
2022/01/22 02:04:42;;;;;;;;;;;13.10;58.10;;;;;;5052004;28;19960;-73
2022/01/22 02:07:09;;;;;;;;;;;13.20;58.10;;;;;;5052152;28;20421;-73
2022/01/22 02:09:36;;;;;;;;;;;13.10;58.00;;;;;;5052315;28;19964;-73
2022/01/22 02:12:08;;;;;;;;;;;13.20;58.10;;;;;;5051809;28;19956;-73
2022/01/22 02:25:37;;;;;;;;;;;13.20;57.90;;;;;;5031736;28;19995;-73
2022/01/22 02:28:04;;;;;;;;;;;13.20;57.90;;;;;;5031998;28;19971;-73
2022/01/22 02:30:34;;;;;;;;;;;13.30;57.90;;;;;;5031755;28;20414;-73
2022/01/22 02:33:11;;;;;;;;;;;13.30;57.90;;;;;;5031972;28;19921;-73
2022/01/22 02:35:45;;;;;;;;;;;13.30;57.90;;;;;;5031743;28;19928;-73
2022/01/22 02:38:18;;;;;;;;;;;13.30;57.90;;;;;;5031825;28;19932;-73
2022/01/22 02:40:47;;;;;;;;;;;13.30;57.80;;;;;;5032531;28;19921;-73
2022/01/22 02:43:14;;;;;;;;;;;13.30;57.80;;;;;;5032959;28;19921;-73
2022/01/22 02:45:41;;;;;;;;;;;13.30;57.80;;;;;;5032610;28;19920;-73
2022/01/22 02:48:07;;;;;;;;;;;13.30;57.80;;;;;;5045866;28;20380;-73
2022/01/22 02:50:34;;;;;;;;;;;13.40;57.80;;;;;;5051261;28;20016;-73
2022/01/22 02:53:01;;;;;;;;;;;13.40;57.80;;;;;;5051441;28;20015;-73
2022/01/22 02:55:29;;;;;;;;;;;13.40;57.80;;;;;;5052225;28;20023;-73
2022/01/22 02:57:56;;;;;;;;;;;13.40;57.80;;;;;;5051569;28;19952;-73
2022/01/22 03:00:23;;;;;;;;;;;13.40;57.80;;;;;;5052234;28;20011;-73
2022/01/22 03:02:51;;;;;;;;;;;13.40;57.80;;;;;;5051072;28;19931;-73
2022/01/22 03:05:17;;;;;;;;;;;13.40;57.80;;;;;;5051119;28;20012;-73
2022/01/22 03:07:49;;;;;;;;;;;13.40;57.80;;;;;;5051136;28;20019;-73
2022/01/22 03:10:19;;;;;;;;;;;13.40;57.80;;;;;;5052254;28;20341;-73
2022/01/22 03:13:04;;;;;;;;;;;13.40;57.80;;;;;;5047283;28;19921;-73
2022/01/22 03:18:16;;;;;;;;;;;13.50;57.80;;;;;;5030048;28;20448;-73
2022/01/22 03:29:11;;;;;;;;;;;13.50;57.80;;;;;;5109206;28;19920;-71
2022/01/22 03:31:38;;;;;;;;;;;13.50;57.80;;;;;;5108780;28;19930;-71
2022/01/22 03:34:04;;;;;;;;;;;13.50;57.70;;;;;;5109008;28;19931;-71
2022/01/22 03:36:33;;;;;;;;;;;13.50;57.70;;;;;;5108915;28;19924;-71
2022/01/22 03:39:01;;;;;;;;;;;13.50;57.70;;;;;;5109004;28;20273;-71
2022/01/22 03:41:28;;;;;;;;;;;13.50;57.80;;;;;;5108936;28;20385;-71
2022/01/22 03:43:54;;;;;;;;;;;13.50;57.70;;;;;;5109671;28;20011;-71
2022/01/22 03:46:21;;;;;;;;;;;13.50;57.70;;;;;;5108690;28;20023;-71
2022/01/22 03:48:48;;;;;;;;;;;13.50;57.70;;;;;;5108775;28;20010;-71
2022/01/22 03:51:15;;;;;;;;;;;13.50;57.70;;;;;;5108914;28;20023;-71
2022/01/22 03:53:42;;;;;;;;;;;13.50;57.70;;;;;;5108545;28;20451;-71
2022/01/22 03:56:11;;;;;;;;;;;13.50;57.70;;;;;;5109609;28;20023;-71
2022/01/22 03:58:38;;;;;;;;;;;13.60;57.70;;;;;;5108433;28;19931;-71
2022/01/22 04:01:38;;;;;;;;;;;13.60;57.70;;;;;;5108617;28;20002;-71
2022/01/22 04:04:07;;;;;;;;;;;13.50;57.60;;;;;;5107844;28;20327;-71
2022/01/22 04:07:04;;;;;;;;;;;13.50;57.70;;;;;;5108223;28;19973;-71
2022/01/22 04:09:31;;;;;;;;;;;13.60;57.70;;;;;;5108149;28;19931;-71
2022/01/22 04:12:00;;;;;;;;;;;13.50;57.70;;;;;;5108373;28;20111;-71
2022/01/22 04:14:31;;;;;;;;;;;13.60;57.70;;;;;;5094542;28;20008;-72
2022/01/22 04:17:08;;;;;;;;;;;13.60;57.70;;;;;;5108830;28;19984;-72
2022/01/22 04:25:02;;;;;;;;;;;13.60;57.70;;;;;;5128376;28;20296;-72
2022/01/22 04:27:30;;;;;;;;;;;13.60;57.70;;;;;;5128126;28;20010;-72
2022/01/22 04:29:58;;;;;;;;;;;13.60;57.70;;;;;;5129638;27;19970;-72
2022/01/22 04:32:25;;;;;;;;;;;13.60;57.70;;;;;;5128449;28;20011;-72
2022/01/22 04:34:51;;;;;;;;;;;13.60;57.70;;;;;;5115245;28;19924;-72
2022/01/22 04:37:18;;;;;;;;;;;13.60;57.70;;;;;;5113998;28;19959;-72
2022/01/22 04:39:45;;;;;;;;;;;13.60;57.70;;;;;;5114662;28;20388;-72
2022/01/22 04:42:12;;;;;;;;;;;13.60;57.70;;;;;;5114479;28;19924;-72
2022/01/22 04:44:48;;;;;;;;;;;13.60;57.70;;;;;;5114436;28;20044;-72
2022/01/22 04:47:25;;;;;;;;;;;13.60;57.60;;;;;;5114367;28;19924;-71
2022/01/22 04:52:41;;;;;;;;;;;13.60;57.60;;;;;;5108609;28;20006;-72
2022/01/22 04:55:08;;;;;;;;;;;13.70;57.70;;;;;;5104639;28;19931;-72
2022/01/22 04:57:36;;;;;;;;;;;13.70;57.70;;;;;;5103823;28;19920;-72
2022/01/22 05:00:04;;;;;;;;;;;13.60;57.60;;;;;;5103373;28;19946;-72
2022/01/22 05:02:31;;;;;;;;;;;13.70;57.70;;;;;;5103169;28;19932;-72
2022/01/22 05:04:57;;;;;;;;;;;13.70;57.70;;;;;;5103886;28;19994;-72
2022/01/22 05:07:24;;;;;;;;;;;13.70;57.70;;;;;;5100872;28;19974;-72
2022/01/22 05:09:51;;;;;;;;;;;13.60;57.60;;;;;;5102898;28;19932;-72
2022/01/22 05:12:17;;;;;;;;;;;13.70;57.70;;;;;;5100971;28;20027;-71
2022/01/22 05:14:44;;;;;;;;;;;13.70;57.70;;;;;;5103337;28;19930;-72
2022/01/22 05:17:13;;;;;;;;;;;13.70;57.70;;;;;;5102362;28;19939;-72
2022/01/22 05:19:48;;;;;;;;;;;13.70;57.70;;;;;;5102828;28;20347;-72
2022/01/22 05:22:26;;;;;;;;;;;13.70;57.70;;;;;;5099032;28;19924;-72
2022/01/22 05:24:57;;;;;;;;;;;13.70;57.60;;;;;;5101380;28;19957;-72
2022/01/22 05:27:49;;;;;;;;;;;13.70;57.70;;;;;;5100232;28;19931;-72
2022/01/22 05:30:38;;;;;;;;;;;13.70;57.70;;;;;;5093198;28;19928;-72
2022/01/22 05:33:17;;;;;;;;;;;13.70;57.70;;;;;;5093820;28;20294;-72
2022/01/22 05:38:29;;;;;;;;;;;13.70;57.70;;;;;;5092721;28;19920;-72
2022/01/22 05:40:55;;;;;;;;;;;13.70;57.70;;;;;;5110889;28;19998;-72
2022/01/22 05:43:22;;;;;;;;;;;13.70;57.70;;;;;;5114195;27;20002;-72
2022/01/22 05:45:48;;;;;;;;;;;13.70;57.70;;;;;;5112079;28;20018;-72
2022/01/22 05:48:16;;;;;;;;;;;13.70;57.70;;;;;;5113113;28;20007;-72
2022/01/22 05:50:50;;;;;;;;;;;13.70;57.60;;;;;;5113181;28;20432;-72
2022/01/22 05:53:30;;;;;;;;;;;13.70;57.70;;;;;;5112575;28;20300;-72
2022/01/22 06:01:24;;;;;;;;;;;13.70;57.60;;;;;;5104612;28;20421;-71
2022/01/22 06:03:52;;;;;;;;;;;13.70;57.60;;;;;;5102835;28;19978;-72
2022/01/22 06:06:19;;;;;;;;;;;13.70;57.60;;;;;;5102183;28;20355;-72
2022/01/22 06:08:51;;;;;;;;;;;13.70;57.60;;;;;;5101103;28;19924;-72
2022/01/22 06:11:22;;;;;;;;;;;13.80;57.70;;;;;;5100625;28;20407;-72
2022/01/22 06:13:49;;;;;;;;;;;13.70;57.60;;;;;;5105801;28;20010;-72
2022/01/22 06:16:15;;;;;;;;;;;13.80;57.70;;;;;;5113197;28;20006;-72
2022/01/22 06:18:42;;;;;;;;;;;13.80;57.70;;;;;;5113547;28;20447;-72
2022/01/22 06:21:10;;;;;;;;;;;13.80;57.70;;;;;;5112051;28;19963;-72
2022/01/22 06:23:37;;;;;;;;;;;13.70;57.60;;;;;;5111905;28;19923;-72
2022/01/22 06:26:03;;;;;;;;;;;13.80;57.70;;;;;;5112188;28;20097;-72
2022/01/22 06:28:30;;;;;;;;;;;13.80;57.70;;;;;;5112549;28;19974;-72
2022/01/22 06:30:57;;;;;;;;;;;13.80;57.70;;;;;;5113529;28;20014;-72
2022/01/22 06:33:23;;;;;;;;;;;13.80;57.70;;;;;;5112252;28;19963;-72
2022/01/22 06:35:50;;;;;;;;;;;13.80;57.70;;;;;;5111929;28;19955;-72
2022/01/22 06:38:18;;;;;;;;;;;13.80;57.70;;;;;;5111997;28;19959;-72
2022/01/22 06:43:29;;;;;;;;;;;13.80;57.60;;;;;;5111912;28;20346;-72
2022/01/22 06:45:56;;;;;;;;;;;13.80;57.60;;;;;;5112662;28;19923;-72
2022/01/22 06:48:22;;;;;;;;;;;13.80;57.70;;;;;;5111738;28;20004;-72
2022/01/22 06:50:49;;;;;;;;;;;13.80;57.70;;;;;;5109937;28;19947;-72
2022/01/22 06:53:15;;;;;;;;;;;13.80;57.70;;;;;;5098580;28;19975;-72
2022/01/22 06:55:46;;;;;;;;;;;13.80;57.70;;;;;;5109356;28;19978;-72
2022/01/22 06:58:13;;;;;;;;;;;14.30;58.00;;;;;;5110275;28;19924;-71
2022/01/22 07:00:40;;;;;;;;;;;13.80;57.70;;;;;;5091729;28;20007;-71
2022/01/22 07:03:06;;;;;;;;;;;13.80;57.70;;;;;;5092399;28;20039;-72
2022/01/22 07:05:33;;;;;;;;;;;13.80;57.70;;;;;;5092540;28;20006;-72
2022/01/22 07:08:00;;;;;;;;;;;13.80;57.70;;;;;;5101949;28;19925;-71
2022/01/22 07:10:26;;;;;;;;;;;13.80;57.60;;;;;;5099660;28;20020;-72
2022/01/22 07:12:54;;;;;;;;;;;13.80;57.60;;;;;;5100309;28;20014;-72
2022/01/22 07:15:21;;;;;;;;;;;13.80;57.60;;;;;;5102307;28;19975;-72
2022/01/22 07:17:47;;;;;;;;;;;13.90;57.70;;;;;;5101091;28;20444;-72
2022/01/22 07:20:17;;;;;;;;;;;13.90;57.80;;;;;;5101988;28;19963;-72
2022/01/22 07:22:51;;;;;;;;;;;13.90;57.60;;;;;;5099572;28;19923;-72
2022/01/22 07:25:17;;;;;;;;;;;13.90;57.60;;;;;;5102352;28;19946;-72
2022/01/22 07:27:44;;;;;;;;;;;13.90;57.60;;;;;;5099937;28;19967;-72
2022/01/22 07:30:13;;;;;;;;;;;13.90;57.60;;;;;;5101459;28;20006;-71
2022/01/22 07:32:42;;;;;;;;;;;14.00;57.60;;;;;;5104176;28;20030;-72
2022/01/22 07:35:09;;;;;;;;;;;14.00;57.60;;;;;;5099869;28;20017;-72
2022/01/22 07:37:36;;;;;;;;;;;14.00;57.50;;;;;;5100733;28;20003;-72
2022/01/22 07:40:03;;;;;;;;;;;14.00;57.50;;;;;;5101145;28;19940;-72
2022/01/22 07:42:30;;;;;;;;;;;14.10;57.50;;;;;;5099758;28;19931;-72
2022/01/22 07:44:56;;;;;;;;;;;14.10;57.50;;;;;;5102142;28;20345;-72
2022/01/22 07:47:24;;;;;;;;;;;14.10;57.50;;;;;;5093783;28;19924;-72
2022/01/22 07:49:51;;;;;;;;;;;14.10;57.40;;;;;;5091093;28;20011;-72
2022/01/22 07:52:18;;;;;;;;;;;14.10;57.40;;;;;;5090982;28;20007;-72
2022/01/22 07:54:44;;;;;;;;;;;14.10;57.40;;;;;;5090872;28;20011;-72
2022/01/22 07:57:11;;;;;;;;;;;14.10;57.40;;;;;;5090839;28;19924;-72
2022/01/22 07:59:37;;;;;;;;;;;14.20;57.40;;;;;;5091179;28;20002;-72
2022/01/22 08:02:04;;;;;;;;;;;14.20;57.40;;;;;;5092172;28;20375;-72
2022/01/22 08:04:32;;;;;;;;;;;14.20;57.30;;;;;;5091971;28;20367;-72
2022/01/22 08:06:59;;;;;;;;;;;14.20;57.30;;;;;;5090558;28;19967;-72
2022/01/22 08:09:26;;;;;;;;;;;14.20;57.30;;;;;;5093164;28;20011;-72
2022/01/22 08:11:52;;;;;;;;;;;14.30;57.30;;;;;;5095760;28;19970;-72
2022/01/22 08:14:19;;;;;;;;;;;14.20;57.20;;;;;;5113047;28;20317;-72
2022/01/22 08:16:46;;;;;;;;;;;14.30;57.30;;;;;;5114457;28;20022;-71
2022/01/22 08:19:13;;;;;;;;;;;14.30;57.20;;;;;;5116163;28;20341;-72
2022/01/22 08:21:41;;;;;;;;;;;14.30;57.20;;;;;;5114477;28;20440;-71
2022/01/22 08:24:08;;;;;;;;;;;14.30;57.20;;;;;;5115857;28;20018;-72
2022/01/22 08:26:39;;;;;;;;;;;14.30;57.10;;;;;;5115778;28;19931;-71
2022/01/22 08:29:06;;;;;;;;;;;14.30;57.10;;;;;;5115594;28;19924;-72
2022/01/22 08:31:48;;;;;;;;;;;14.40;57.10;;;;;;5114889;28;20030;-71
2022/01/22 08:37:00;;;;;;;;;;;14.40;57.10;;;;;;5114502;28;19920;-71
2022/01/22 08:39:27;;;;;;;;;;;14.40;57.10;;;;;;5114180;28;19982;-71
2022/01/22 08:41:53;;;;;;;;;;;14.40;57.10;;;;;;5114690;28;19993;-71
2022/01/22 08:44:20;;;;;;;;;;;14.50;57.20;;;;;;5114265;28;20014;-71
2022/01/22 08:46:46;;;;;;;;;;;14.50;57.10;;;;;;5114217;28;20418;-71
2022/01/22 08:49:13;;;;;;;;;;;14.80;57.30;;;;;;5114406;28;19959;-71
2022/01/22 08:51:39;;;;;;;;;;;14.50;57.10;;;;;;5115526;28;20361;-71
2022/01/22 08:54:08;;;;;;;;;;;14.50;57.10;;;;;;5115282;28;19932;-71
2022/01/22 08:56:35;;;;;;;;;;;14.50;57.10;;;;;;5114168;28;20440;-71
2022/01/22 08:59:02;;;;;;;;;;;14.50;57.00;;;;;;5114062;28;20014;-71
2022/01/22 09:01:28;;;;;;;;;;;14.50;57.00;;;;;;5114011;28;20028;-71
2022/01/22 09:03:56;;;;;;;;;;;14.60;57.00;;;;;;5110018;28;20003;-71
2022/01/22 09:06:29;;;;;;;;;;;14.60;57.00;;;;;;5110933;28;19977;-73
2022/01/22 09:09:04;;;;;;;;;;;14.60;57.00;;;;;;5114028;28;19931;-74
2022/01/22 09:11:32;;;;;;;;;;;14.60;57.50;;;;;;5114136;28;19924;-74
2022/01/22 09:13:59;;;;;;;;;;;14.70;57.80;;;;;;5100522;28;19963;-74
2022/01/22 09:16:25;;;;;;;;;;;14.70;57.50;;;;;;5113732;28;20439;-74
2022/01/22 09:18:54;;;;;;;;;;;14.70;57.30;;;;;;5113468;28;20336;-74
2022/01/22 09:21:20;;;;;;;;;;;14.80;57.30;;;;;;5113117;28;19924;-74
2022/01/22 09:23:47;;;;;;;;;;;14.80;57.30;;;;;;5113856;28;20010;-74
2022/01/22 09:26:13;;;;;;;;;;;14.80;57.30;;;;;;5113480;28;20014;-74
2022/01/22 09:28:43;;;;;;;;;;;14.80;57.30;;;;;;5113673;28;19975;-74
2022/01/22 09:31:09;;;;;;;;;;;14.90;57.30;;;;;;5113783;28;20324;-74
2022/01/22 09:33:36;;;;;;;;;;;14.90;57.20;;;;;;5113522;28;19973;-74
2022/01/22 09:36:03;;;;;;;;;;;14.90;57.30;;;;;;5113523;28;19977;-74
2022/01/22 09:38:30;;;;;;;;;;;14.90;57.20;;;;;;5113094;28;20014;-74
2022/01/22 09:40:56;;;;;;;;;;;14.90;57.20;;;;;;5113533;28;19960;-74
2022/01/22 09:43:24;;;;;;;;;;;14.90;57.10;;;;;;5114326;28;20018;-74
2022/01/22 09:45:52;;;;;;;;;;;15.00;57.20;;;;;;5113242;28;20033;-74
2022/01/22 09:48:18;;;;;;;;;;;15.00;57.10;;;;;;5113248;28;20011;-74
2022/01/22 09:50:45;;;;;;;;;;;15.00;57.10;;;;;;5114566;28;19959;-74
2022/01/22 09:53:11;;;;;;;;;;;15.00;57.20;;;;;;5113186;28;20385;-74
2022/01/22 09:55:38;;;;;;;;;;;15.00;57.10;;;;;;5114052;28;20011;-74
2022/01/22 09:58:05;;;;;;;;;;;15.00;57.10;;;;;;5113320;28;19971;-74
2022/01/22 10:00:31;;;;;;;;;;;15.00;57.00;;;;;;5113040;28;19977;-74
2022/01/22 10:02:59;;;;;;;;;;;15.00;57.00;;;;;;5112862;28;20556;-74
2022/01/22 10:05:27;;;;;;;;;;;15.10;57.10;;;;;;5106131;28;20433;-74
2022/01/22 10:07:53;;;;;;;;;;;15.10;57.00;;;;;;5101973;28;19951;-74
2022/01/22 10:10:20;;;;;;;;;;;15.10;57.10;;;;;;5095179;28;20031;-74
2022/01/22 10:12:48;;;;;;;;;;;15.10;57.00;;;;;;5097767;28;19967;-74
2022/01/22 10:15:15;;;;;;;;;;;15.10;57.00;;;;;;5112348;28;19974;-74
2022/01/22 10:17:43;;;;;;;;;;;15.10;57.00;;;;;;5112672;28;19967;-74
2022/01/22 10:20:24;;;;;;;;;;;15.30;57.10;;;;;;5112146;28;19969;-74
2022/01/22 10:22:53;;;;;;;;;;;15.10;56.90;;;;;;5112470;28;19924;-74
2022/01/22 10:25:20;;;;;;;;;;;15.10;57.10;;;;;;5112555;28;20281;-74
2022/01/22 10:27:51;;;;;;;;;;;16.00;57.70;;;;;;5115132;28;19935;-75
2022/01/22 10:30:19;;;;;;;;;;;15.20;57.20;;;;;;5115524;28;19923;-75
2022/01/22 10:32:50;;;;;;;;;;;15.20;57.20;;;;;;5114169;28;19972;-75
2022/01/22 10:35:17;;;;;;;;;;;15.20;57.20;;;;;;5115001;28;19931;-75
2022/01/22 10:37:43;;;;;;;;;;;15.20;57.10;;;;;;5114818;28;20413;-75
2022/01/22 10:40:18;;;;;;;;;;;15.20;57.10;;;;;;5115293;28;20011;-75
2022/01/22 10:42:45;;;;;;;;;;;15.20;57.10;;;;;;5115691;28;19963;-75
2022/01/22 10:45:19;;;;;;;;;;;15.20;57.10;;;;;;5114863;28;19967;-75
2022/01/22 10:47:45;;;;;;;;;;;15.20;57.10;;;;;;5114777;28;19924;-75
2022/01/22 10:50:19;;;;;;;;;;;15.20;57.10;;;;;;5114472;28;19931;-75
2022/01/22 10:52:49;;;;;;;;;;;15.30;57.10;;;;;;5114773;28;20077;-75
2022/01/22 10:55:15;;;;;;;;;;;15.20;57.00;;;;;;5114164;28;20367;-75
2022/01/22 10:57:43;;;;;;;;;;;15.70;57.30;;;;;;5114336;28;20149;-75
2022/01/22 11:00:13;;;;;;;;;;;15.30;57.00;;;;;;5114117;28;20019;-75
2022/01/22 11:02:40;;;;;;;;;;;15.30;57.00;;;;;;5105098;28;19963;-75
2022/01/22 11:05:07;;;;;;;;;;;15.30;57.00;;;;;;5095548;28;20373;-75
2022/01/22 11:07:34;;;;;;;;;;;15.30;57.00;;;;;;5092533;28;20007;-75
2022/01/22 11:10:00;;;;;;;;;;;15.30;57.00;;;;;;5091392;28;20015;-75
2022/01/22 11:12:27;;;;;;;;;;;15.30;56.90;;;;;;5094039;28;20358;-74
2022/01/22 11:14:56;;;;;;;;;;;15.40;56.90;;;;;;5111836;28;19970;-74
2022/01/22 11:17:24;;;;;;;;;;;15.40;56.90;;;;;;5112340;28;19928;-74
2022/01/22 11:19:51;;;;;;;;;;;15.40;56.90;;;;;;5112975;28;20345;-75
2022/01/22 11:22:17;;;;;;;;;;;15.30;56.80;;;;;;5110999;28;20032;-74
2022/01/22 11:24:44;;;;;;;;;;;15.40;57.00;;;;;;5111364;28;20356;-72
2022/01/22 11:27:11;;;;;;;;;;;15.30;56.80;;;;;;5111288;28;20002;-74
2022/01/22 11:29:41;;;;;;;;;;;15.40;57.00;;;;;;5111840;28;19924;-74
2022/01/22 11:32:10;;;;;;;;;;;15.30;56.90;;;;;;5108900;28;20014;-74
2022/01/22 11:34:38;;;;;;;;;;;15.40;56.90;;;;;;5104057;28;20007;-74
2022/01/22 11:37:07;;;;;;;;;;;15.40;57.00;;;;;;5111477;28;20023;-74
2022/01/22 11:39:34;;;;;;;;;;;15.40;57.00;;;;;;5108991;28;19924;-73
2022/01/22 11:42:00;;;;;;;;;;;15.30;56.90;;;;;;5103285;28;20022;-73
2022/01/22 11:44:30;;;;;;;;;;;15.40;56.90;;;;;;5092988;28;20015;-72
2022/01/22 11:47:06;;;;;;;;;;;15.40;56.90;;;;;;5094580;28;19924;-72
2022/01/22 11:49:34;;;;;;;;;;;18.50;58.70;;;;;;5095180;28;19970;-72
2022/01/22 11:52:16;;;;;;;;;;;15.40;56.90;;;;;;5110675;28;19924;-72
2022/01/22 11:54:49;;;;;;;;;;;15.40;56.90;;;;;;5094905;28;20020;-72
2022/01/22 11:57:16;;;;;;;;;;;15.40;56.80;;;;;;5094808;28;19971;-73
2022/01/22 11:59:43;;;;;;;;;;;15.40;56.80;;;;;;5095031;28;19928;-73
2022/01/22 12:02:12;;;;;;;;;;;15.40;56.90;;;;;;5094687;28;20331;-72
2022/01/22 12:04:50;;;;;;;;;;;15.40;56.90;;;;;;5094312;28;20359;-71
2022/01/22 12:07:17;;;;;;;;;;;15.40;56.90;;;;;;5094363;28;19924;-74
2022/01/22 12:09:52;;;;;;;;;;;15.40;57.00;;;;;;5099869;28;20026;-72
2022/01/22 12:15:11;;;;;;;;;;;15.40;57.00;;;;;;5106229;28;20384;-73
2022/01/22 12:17:58;;;;;;;;;;;15.40;57.10;;;;;;5109538;28;20019;-73
2022/01/22 12:23:47;;;;;;;;;;;15.40;57.00;;;;;;5113624;28;19928;-72
2022/01/22 12:26:14;;;;;;;;;;;15.30;57.00;;;;;;5111923;28;19923;-73
2022/01/22 12:28:41;;;;;;;;;;;15.30;57.00;;;;;;5114295;28;19924;-72
2022/01/22 12:31:08;;;;;;;;;;;15.20;57.00;;;;;;5114314;28;20010;-72
2022/01/22 12:33:44;;;;;;;;;;;15.20;57.00;;;;;;5114176;28;20024;-73
2022/01/22 12:36:17;;;;;;;;;;;15.20;57.10;;;;;;5101680;28;20331;-73
2022/01/22 12:38:47;;;;;;;;;;;15.20;57.10;;;;;;5094217;28;19935;-73
2022/01/22 12:41:27;;;;;;;;;;;15.20;57.10;;;;;;5099065;28;19971;-73
2022/01/22 12:44:01;;;;;;;;;;;15.20;57.10;;;;;;5111022;28;19923;-73
2022/01/22 12:46:28;;;;;;;;;;;15.20;57.20;;;;;;5112527;28;19973;-71
2022/01/22 12:48:55;;;;;;;;;;;15.10;57.10;;;;;;5112203;28;19924;-73
2022/01/22 12:51:24;;;;;;;;;;;15.10;57.10;;;;;;5114482;28;19924;-71
2022/01/22 12:53:51;;;;;;;;;;;15.10;57.20;;;;;;5113799;28;19930;-73
2022/01/22 12:56:51;;;;;;;;;;;15.10;57.30;;;;;;5114750;28;19923;-73
2022/01/22 12:59:17;;;;;;;;;;;15.10;57.30;;;;;;5113996;28;20015;-73
2022/01/22 13:01:44;;;;;;;;;;;15.00;57.90;;;;;;5113965;28;19931;-73
2022/01/22 13:04:11;;;;;;;;;;;15.00;57.40;;;;;;5114138;28;19924;-72
2022/01/22 13:06:39;;;;;;;;;;;15.00;57.40;;;;;;5115287;28;19986;-72
2022/01/22 13:09:06;;;;;;;;;;;15.00;57.40;;;;;;5113970;28;20002;-72
2022/01/22 13:11:33;;;;;;;;;;;14.90;57.40;;;;;;5113878;28;19971;-72
2022/01/22 13:14:00;;;;;;;;;;;14.90;57.50;;;;;;5113834;28;19923;-72
2022/01/22 13:16:26;;;;;;;;;;;14.80;57.50;;;;;;5113876;28;19927;-72
2022/01/22 13:18:56;;;;;;;;;;;14.80;57.50;;;;;;5113925;28;19927;-72
2022/01/22 13:21:23;;;;;;;;;;;14.80;57.50;;;;;;5113148;28;19974;-72
2022/01/22 13:24:05;;;;;;;;;;;14.80;57.60;;;;;;5113703;28;20006;-72
2022/01/22 13:26:38;;;;;;;;;;;14.80;57.60;;;;;;5113238;28;20015;-73
2022/01/22 13:29:14;;;;;;;;;;;14.80;57.70;;;;;;5113830;28;20356;-72
2022/01/22 13:31:40;;;;;;;;;;;14.70;57.60;;;;;;5113670;28;19930;-72
2022/01/22 13:34:24;;;;;;;;;;;14.70;57.70;;;;;;5114768;28;19924;-72
2022/01/22 13:37:15;;;;;;;;;;;14.70;57.70;;;;;;5113442;28;20001;-72
2022/01/22 13:40:07;;;;;;;;;;;14.70;57.70;;;;;;5114142;28;19923;-72
2022/01/22 13:47:39;;;;;;;;;;;14.70;57.80;;;;;;5114219;28;19928;-73
2022/01/22 13:48:08;;;;;;;;;;;14.60;57.80;;;;;;5114301;28;20384;-72
2022/01/22 13:50:35;;;;;;;;;;;14.60;57.80;;;;;;5113189;28;19920;-72
2022/01/22 13:53:01;;;;;;;;;;;14.60;57.80;;;;;;5113271;28;19931;-72
2022/01/22 13:55:30;;;;;;;;;;;14.60;57.90;;;;;;5113051;28;20007;-72
2022/01/22 13:57:57;;;;;;;;;;;14.60;57.90;;;;;;5113044;28;19924;-72
2022/01/22 14:00:24;;;;;;;;;;;14.60;57.90;;;;;;5113014;28;20204;-72
2022/01/22 14:05:34;;;;;;;;;;;14.60;57.90;;;;;;5111936;28;19928;-72
2022/01/22 14:08:01;;;;;;;;;;;15.20;58.20;;;;;;5113123;28;19930;-74
2022/01/22 14:10:31;;;;;;;;;;;14.60;57.90;;;;;;5112894;28;19968;-75
2022/01/22 14:13:00;;;;;;;;;;;14.50;57.90;;;;;;5103301;28;19979;-75
2022/01/22 14:15:28;;;;;;;;;;;14.50;57.90;;;;;;5102056;28;19928;-76
2022/01/22 14:18:05;;;;;;;;;;;16.70;59.20;;;;;;5106105;28;19927;-77
2022/01/22 14:20:32;;;;;;;;;;;14.50;58.00;;;;;;5100920;28;19924;-75
2022/01/22 14:23:01;;;;;;;;;;;14.50;57.90;;;;;;5105835;28;20003;-75
2022/01/22 14:25:27;;;;;;;;;;;14.50;58.00;;;;;;5119029;27;20027;-77
2022/01/22 14:27:56;;;;;;;;;;;14.50;58.10;;;;;;5101112;28;20022;-75
2022/01/22 14:30:30;;;;;;;;;;;14.50;58.00;;;;;;5102242;28;20023;-75
2022/01/22 14:32:56;;;;;;;;;;;14.50;58.00;;;;;;5100669;28;20427;-75
2022/01/22 14:35:23;;;;;;;;;;;14.50;58.00;;;;;;5100978;28;19931;-79
2022/01/22 14:37:53;;;;;;;;;;;14.50;58.10;;;;;;5101964;28;20007;-76
2022/01/22 14:45:56;;;;;;;;;;;14.60;58.00;;;;;;5118125;27;20041;-75
2022/01/22 14:48:23;;;;;;;;;;;14.50;58.00;;;;;;5097611;28;20015;-75
2022/01/22 14:50:50;;;;;;;;;;;14.60;58.10;;;;;;5104594;28;20003;-76
2022/01/22 14:53:16;;;;;;;;;;;14.50;58.00;;;;;;5106599;28;19924;-75
2022/01/22 14:55:47;;;;;;;;;;;14.60;58.20;;;;;;5097170;28;19931;-75
2022/01/22 14:58:15;;;;;;;;;;;14.50;58.00;;;;;;5104191;28;19974;-76
2022/01/22 15:00:42;;;;;;;;;;;14.50;58.00;;;;;;5111848;28;19931;-74
2022/01/22 15:03:08;;;;;;;;;;;14.50;58.00;;;;;;5111847;28;20300;-75
2022/01/22 15:05:35;;;;;;;;;;;14.50;58.00;;;;;;5111573;28;20018;-75
2022/01/22 15:08:02;;;;;;;;;;;14.50;58.10;;;;;;5111927;28;19959;-75
2022/01/22 15:10:28;;;;;;;;;;;14.50;58.10;;;;;;5111662;28;20554;-75
2022/01/22 15:12:55;;;;;;;;;;;14.50;58.10;;;;;;5111737;28;20015;-75
2022/01/22 15:15:25;;;;;;;;;;;14.50;58.10;;;;;;5111231;28;19970;-76
2022/01/22 15:18:04;;;;;;;;;;;14.50;58.10;;;;;;5111739;28;19927;-75
2022/01/22 15:20:32;;;;;;;;;;;14.50;58.10;;;;;;5111557;28;19924;-75
2022/01/22 15:22:59;;;;;;;;;;;14.50;58.10;;;;;;5111696;28;19924;-76
2022/01/22 15:25:25;;;;;;;;;;;14.50;58.10;;;;;;5111022;28;20611;-75
2022/01/22 15:27:53;;;;;;;;;;;14.40;58.00;;;;;;5111386;28;20015;-75
2022/01/22 15:30:23;;;;;;;;;;;14.40;58.10;;;;;;5111368;28;20289;-75
2022/01/22 15:33:01;;;;;;;;;;;14.40;58.10;;;;;;5111236;28;20022;-75
2022/01/22 15:35:27;;;;;;;;;;;14.50;58.10;;;;;;5111440;28;19940;-75
2022/01/22 15:37:57;;;;;;;;;;;14.50;58.10;;;;;;5111663;28;20015;-75
2022/01/22 15:40:24;;;;;;;;;;;14.40;58.00;;;;;;5111573;28;20010;-76
2022/01/22 15:42:51;;;;;;;;;;;14.40;58.00;;;;;;5111439;28;19945;-76
2022/01/22 15:45:17;;;;;;;;;;;14.40;58.10;;;;;;5111420;28;20030;-77
2022/01/22 15:47:44;;;;;;;;;;;14.50;58.20;;;;;;5110977;28;19927;-76